Sandy G — WAK5375 — position and weather

sailwx.info

Track history (hours):
 
Tides and Currents Weather Stations Pressure Air Temp Water Temp Dewpoint Dewpoint Depression Visibility Wind Speed Wind Dir Waves Ship Positions

Sandy G

Owner: GREGORY, FRANK H, JERSEY CITY, NJ. More information available from US FCC via Universal Licensing System and Coast Guard Vessel Documentation Center.

Last reported at 2018-Feb-22 12:59 UTC. Time now 2018-Feb-22 13:12 UTC.
Position N 37°00' W 076°19'.

Length 20 m; draft 2.3 m.

Type: Towing. MMSI: 367014210.

Date/timePositionNaut miles runAvg speedWind from/ knotsBaromVisibWave heightAir tempDewpointWater temp
2018-Feb-22 12:59N 37°00' W 076°19'0 0.0
2018-Feb-22 12:30N 37°00' W 076°19'0 0.0
2018-Feb-22 11:59N 37°00' W 076°19'0 0.0
2018-Feb-22 11:29N 37°00' W 076°19'0 0.0
2018-Feb-22 10:59N 37°00' W 076°19'0 0.0
2018-Feb-22 10:29N 37°00' W 076°19'0 0.0
2018-Feb-22 09:50N 37°00' W 076°19'0 0.0
2018-Feb-22 09:30N 37°00' W 076°19'0 0.0
2018-Feb-22 08:59N 37°00' W 076°19'0 0.0
2018-Feb-22 08:30N 37°00' W 076°19'0 0.0
2018-Feb-22 07:54N 37°00' W 076°19'0 0.0
2018-Feb-22 07:18N 37°00' W 076°19'0 0.3
2018-Feb-22 06:57N 37°00' W 076°19'2 3.4
2018-Feb-22 06:27N 36°59' W 076°18'1 0.8
2018-Feb-22 05:22N 36°59' W 076°19'1 1.4
2018-Feb-22 04:57N 36°60' W 076°19'0 0.0
2018-Feb-22 04:26N 36°60' W 076°19'0 0.1
2018-Feb-22 03:53N 36°60' W 076°19'0 0.0
2018-Feb-22 03:27N 36°60' W 076°19'0 0.0
2018-Feb-22 02:57N 36°60' W 076°19'0 0.0
2018-Feb-22 02:27N 36°60' W 076°19'0 0.0
2018-Feb-22 01:56N 36°60' W 076°19'0 0.0
2018-Feb-22 01:26N 36°60' W 076°19'0 0.1
2018-Feb-22 00:56N 36°60' W 076°19'0 0.0
2018-Feb-22 00:26N 36°60' W 076°19'0 0.0
2018-Feb-21 23:56N 36°60' W 076°19'0 0.0
2018-Feb-21 23:28N 36°60' W 076°19'0 0.0
2018-Feb-21 22:56N 36°60' W 076°19'0 0.0
2018-Feb-21 22:26N 36°60' W 076°19'0 0.0
2018-Feb-21 21:56N 36°60' W 076°19'0 0.0
2018-Feb-21 21:30N 36°60' W 076°19'0 0.1
2018-Feb-21 20:54N 36°60' W 076°19'1 2.3
2018-Feb-21 20:28N 36°59' W 076°18'0 0.6
2018-Feb-21 19:58N 36°59' W 076°18'0 0.0
2018-Feb-21 19:28N 36°59' W 076°18'0 0.0
2018-Feb-21 19:00N 36°59' W 076°18'0 0.0
2018-Feb-21 18:27N 36°59' W 076°18'0 0.1
2018-Feb-21 17:56N 36°59' W 076°18'0 0.0
2018-Feb-21 17:27N 36°59' W 076°18'0 0.0
2018-Feb-21 16:29N 36°59' W 076°18'0 0.0
2018-Feb-21 15:58N 36°59' W 076°18'0 1.0
2018-Feb-21 15:30N 36°59' W 076°18'0 0.0
2018-Feb-21 15:00N 36°59' W 076°18'3 5.3
2018-Feb-21 14:29N 36°58' W 076°21'3 2.0
2018-Feb-21 13:12N 36°58' W 076°25'0 0.0
2018-Feb-21 12:57N 36°58' W 076°25'1 2.0
2018-Feb-21 12:26N 36°57' W 076°24'4 8.2
2018-Feb-21 11:56N 36°59' W 076°19'1 2.3
2018-Feb-21 11:30N 37°00' W 076°19'1 2.4
2018-Feb-21 11:00N 36°59' W 076°18'0 0.0
2018-Feb-21 10:29N 36°59' W 076°18'0 0.0
2018-Feb-21 09:59N 36°59' W 076°18'0 0.0
2018-Feb-21 09:29N 36°59' W 076°18'0 0.0
2018-Feb-21 08:59N 36°59' W 076°18'0 0.0
2018-Feb-21 08:28N 36°59' W 076°18'0 0.0
2018-Feb-21 07:57N 36°59' W 076°18'0 0.0
2018-Feb-21 07:27N 36°59' W 076°18'0 0.0
2018-Feb-21 06:57N 36°59' W 076°18'0 0.0
2018-Feb-21 06:26N 36°59' W 076°18'0 0.0
2018-Feb-21 05:56N 36°59' W 076°18'1 2.5
2018-Feb-21 05:26N 37°00' W 076°19'0 0.0
2018-Feb-21 05:00N 37°00' W 076°19'0 1.0
2018-Feb-21 04:30N 36°60' W 076°19'1 1.9
2018-Feb-21 04:00N 36°59' W 076°18'0 0.0
2018-Feb-21 03:29N 36°59' W 076°18'0 0.0
2018-Feb-21 02:59N 36°59' W 076°18'0 0.0
2018-Feb-21 02:27N 36°59' W 076°18'0 0.0
2018-Feb-21 01:57N 36°59' W 076°18'0 0.0
2018-Feb-21 01:26N 36°59' W 076°18'0 0.0
2018-Feb-21 00:56N 36°59' W 076°18'0 0.2
2018-Feb-21 00:24N 36°59' W 076°18'0 0.0
2018-Feb-21 00:00N 36°59' W 076°18'0 0.0
2018-Feb-20 23:29N 36°59' W 076°18'0 0.0
2018-Feb-20 22:59N 36°59' W 076°18'0 0.0
2018-Feb-20 22:28N 36°59' W 076°18'0 0.0
2018-Feb-20 21:56N 36°59' W 076°18'0 0.0
2018-Feb-20 21:28N 36°59' W 076°18'0 0.0
2018-Feb-20 20:56N 36°59' W 076°18'0 0.0
2018-Feb-20 20:30N 36°59' W 076°18'0 0.0
2018-Feb-20 20:00N 36°59' W 076°18'0 0.0
2018-Feb-20 19:29N 36°59' W 076°18'0 0.0
2018-Feb-20 18:56N 36°59' W 076°18'0 0.0
2018-Feb-20 18:26N 36°59' W 076°18'0 0.0
2018-Feb-20 17:57N 36°59' W 076°18'1 2.0
2018-Feb-20 17:18N 37°00' W 076°19'0 0.0
2018-Feb-20 16:58N 37°00' W 076°19'1 2.6
2018-Feb-20 16:28N 36°59' W 076°18'0 0.0
2018-Feb-20 15:57N 36°59' W 076°18'0 0.1
2018-Feb-20 15:26N 36°59' W 076°18'0 0.0
2018-Feb-20 14:56N 36°59' W 076°18'0 0.0
2018-Feb-20 14:30N 36°59' W 076°18'0 0.0
2018-Feb-20 14:00N 36°59' W 076°18'0 0.0
2018-Feb-20 13:30N 36°59' W 076°18'0 0.0
2018-Feb-20 12:59N 36°59' W 076°18'0 0.0
2018-Feb-20 12:29N 36°59' W 076°18'0 0.0
2018-Feb-20 11:47N 36°59' W 076°18'0 0.0
2018-Feb-20 11:27N 36°59' W 076°18'0 0.0
2018-Feb-20 10:55N 36°59' W 076°18'0 0.2
2018-Feb-20 10:30N 36°59' W 076°18'0 0.0
2018-Feb-20 09:59N 36°59' W 076°18'0 0.0
2018-Feb-20 09:21N 36°59' W 076°18'0 0.0
2018-Feb-20 09:00N 36°59' W 076°18'0 0.1
2018-Feb-20 08:30N 36°59' W 076°18'0 0.0
2018-Feb-20 07:59N 36°59' W 076°18'0 0.0
2018-Feb-20 07:28N 36°59' W 076°18'0 0.0
2018-Feb-20 06:58N 36°59' W 076°18'0 0.0
2018-Feb-20 06:28N 36°59' W 076°18'0 0.0
2018-Feb-20 05:57N 36°59' W 076°18'0 0.0
2018-Feb-20 05:27N 36°59' W 076°18'0 0.0
2018-Feb-20 04:57N 36°59' W 076°18'0 0.0
2018-Feb-20 04:26N 36°59' W 076°18'0 0.0
2018-Feb-20 03:56N 36°59' W 076°18'0 0.0
2018-Feb-20 03:30N 36°59' W 076°18'0 0.0
2018-Feb-20 03:00N 36°59' W 076°18'0 0.5
2018-Feb-20 02:30N 36°59' W 076°19'1 2.0
2018-Feb-20 02:00N 37°00' W 076°19'0 0.0
2018-Feb-20 01:29N 37°00' W 076°19'0 0.0
2018-Feb-20 00:59N 37°00' W 076°19'0 0.0
2018-Feb-20 00:28N 37°00' W 076°19'0 0.0
2018-Feb-19 23:58N 37°00' W 076°19'0 0.0
2018-Feb-19 23:30N 37°00' W 076°19'0 0.0
2018-Feb-19 23:00N 37°00' W 076°19'0 0.0
2018-Feb-19 22:29N 37°00' W 076°19'0 0.0
2018-Feb-19 21:57N 37°00' W 076°19'0 0.0
2018-Feb-19 21:14N 37°00' W 076°19'0 0.0
2018-Feb-19 20:59N 37°00' W 076°19'0 0.2
2018-Feb-19 20:27N 37°00' W 076°19'0 0.0
2018-Feb-19 20:00N 37°00' W 076°19'0 0.0
2018-Feb-19 19:23N 37°00' W 076°19'0 0.0
2018-Feb-19 18:49N 37°00' W 076°19'0 0.0
2018-Feb-19 18:29N 37°00' W 076°19'0 0.0
2018-Feb-19 17:58N 37°00' W 076°19'0 0.0
2018-Feb-19 17:28N 37°00' W 076°19'0 0.0
2018-Feb-19 16:54N 37°00' W 076°19'0 0.0
2018-Feb-19 16:28N 37°00' W 076°19'0 0.0
2018-Feb-19 15:50N 37°00' W 076°19'1 2.6
2018-Feb-19 15:30N 36°59' W 076°19'0 0.6
2018-Feb-19 14:56N 36°59' W 076°18'0 0.0
2018-Feb-19 14:20N 36°59' W 076°18'0 0.0
2018-Feb-19 14:00N 36°59' W 076°18'0 0.0
2018-Feb-19 13:30N 36°59' W 076°18'0 0.0
2018-Feb-19 12:59N 36°59' W 076°18'0 0.0
2018-Feb-19 12:22N 36°59' W 076°18'0 0.0
2018-Feb-19 11:56N 36°59' W 076°18'0 0.0
2018-Feb-19 11:25N 36°59' W 076°18'0 0.1
2018-Feb-19 11:00N 36°59' W 076°18'0 0.3
2018-Feb-19 10:29N 36°59' W 076°18'0 0.0
2018-Feb-19 09:59N 36°59' W 076°18'0 0.0
2018-Feb-19 09:28N 36°59' W 076°18'0 0.0
2018-Feb-19 08:52N 36°59' W 076°18'0 0.0
2018-Feb-19 08:24N 36°59' W 076°18'0 0.0
2018-Feb-19 07:59N 36°59' W 076°18'0 0.0
2018-Feb-19 07:25N 36°59' W 076°18'0 0.0
2018-Feb-19 06:57N 36°59' W 076°18'0 0.0
2018-Feb-19 06:17N 36°59' W 076°18'0 0.0
2018-Feb-19 05:57N 36°59' W 076°18'0 0.0
2018-Feb-19 05:21N 36°59' W 076°18'0 0.0
2018-Feb-19 04:59N 36°59' W 076°18'0 0.0
2018-Feb-19 04:28N 36°59' W 076°18'0 0.0
2018-Feb-19 03:56N 36°59' W 076°18'0 0.0
2018-Feb-19 03:30N 36°59' W 076°18'0 0.0
2018-Feb-19 03:00N 36°59' W 076°18'0 0.0
2018-Feb-19 02:29N 36°59' W 076°18'0 0.0
2018-Feb-19 01:59N 36°59' W 076°18'0 0.0
2018-Feb-19 01:27N 36°59' W 076°18'0 0.0
2018-Feb-19 01:00N 36°59' W 076°18'0 0.2
2018-Feb-19 00:28N 36°59' W 076°18'0 0.0
2018-Feb-18 23:57N 36°59' W 076°18'0 0.0
2018-Feb-18 23:26N 36°59' W 076°18'0 0.0
2018-Feb-18 22:58N 36°59' W 076°18'0 1.0
2018-Feb-18 22:30N 36°60' W 076°19'1 0.5
2018-Feb-18 21:30N 37°00' W 076°19'0 0.0
2018-Feb-18 20:58N 37°00' W 076°19'0 0.0
2018-Feb-18 20:27N 37°00' W 076°19'0 0.0
2018-Feb-18 19:57N 37°00' W 076°19'0 0.0
2018-Feb-18 19:27N 37°00' W 076°19'0 0.0
2018-Feb-18 18:58N 37°00' W 076°19'0 0.0
2018-Feb-18 18:22N 37°00' W 076°19'0 0.0
2018-Feb-18 18:00N 37°00' W 076°19'0 0.0
2018-Feb-18 17:30N 37°00' W 076°19'0 0.0
2018-Feb-18 17:00N 37°00' W 076°19'0 0.0
2018-Feb-18 16:26N 37°00' W 076°19'0 0.2
2018-Feb-18 15:55N 37°00' W 076°19'1 1.7
2018-Feb-18 15:23N 36°59' W 076°18'0 0.0
2018-Feb-18 14:57N 36°59' W 076°18'0 0.0
2018-Feb-18 14:27N 36°59' W 076°18'0 0.0
2018-Feb-18 13:56N 36°59' W 076°18'0 0.0
2018-Feb-18 13:30N 36°59' W 076°18'0 0.0
2018-Feb-18 13:00N 36°59' W 076°18'0 0.0
2018-Feb-18 12:29N 36°59' W 076°18'0 0.0
2018-Feb-18 11:59N 36°59' W 076°18'0 0.0
2018-Feb-18 11:29N 36°59' W 076°18'0 0.4
2018-Feb-18 10:51N 36°59' W 076°19'0 0.0
2018-Feb-18 10:26N 36°59' W 076°19'1 1.3
2018-Feb-18 09:48N 37°00' W 076°19'0 0.0
2018-Feb-18 09:23N 37°00' W 076°19'0 0.0
2018-Feb-18 08:58N 37°00' W 076°19'0 0.0
2018-Feb-18 08:28N 37°00' W 076°19'0 0.0
2018-Feb-18 07:58N 37°00' W 076°19'0 0.0
2018-Feb-18 07:27N 37°00' W 076°19'0 0.0
2018-Feb-18 06:55N 37°00' W 076°19'0 0.0
2018-Feb-18 06:30N 37°00' W 076°19'0 0.0
2018-Feb-18 06:00N 37°00' W 076°19'0 0.0
2018-Feb-18 05:29N 37°00' W 076°19'0 0.6
2018-Feb-18 04:59N 37°00' W 076°19'1 1.6
2018-Feb-18 04:28N 36°60' W 076°19'0 0.5
2018-Feb-18 03:55N 36°59' W 076°19'0 0.0
2018-Feb-18 03:29N 36°59' W 076°19'0 0.2
2018-Feb-18 02:59N 36°59' W 076°18'1 2.2
2018-Feb-18 02:28N 37°00' W 076°19'0 0.0
2018-Feb-18 01:57N 37°00' W 076°19'0 0.0
2018-Feb-18 01:30N 37°00' W 076°19'0 0.5
2018-Feb-18 00:57N 37°00' W 076°19'0 0.0
2018-Feb-18 00:26N 37°00' W 076°19'0 0.0
2018-Feb-17 23:56N 37°00' W 076°19'0 0.0
2018-Feb-17 23:30N 37°00' W 076°19'0 0.0
2018-Feb-17 23:00N 37°00' W 076°19'0 0.0
2018-Feb-17 22:29N 37°00' W 076°19'0 0.0
2018-Feb-17 21:59N 37°00' W 076°19'0 0.0
2018-Feb-17 21:23N 37°00' W 076°19'0 0.0
2018-Feb-17 20:58N 37°00' W 076°19'0 0.0
2018-Feb-17 20:28N 37°00' W 076°19'0 0.0
2018-Feb-17 19:58N 37°00' W 076°19'0 0.0
2018-Feb-17 19:28N 37°00' W 076°19'1 2.4
2018-Feb-17 18:57N 36°59' W 076°19'1 2.9
2018-Feb-17 18:27N 37°00' W 076°19'1 1.5
2018-Feb-17 17:56N 36°60' W 076°19'1 1.4
2018-Feb-17 17:31N 37°00' W 076°19'0 0.0
2018-Feb-17 17:00N 37°00' W 076°19'0 0.0
2018-Feb-17 16:30N 37°00' W 076°19'0 0.0
2018-Feb-17 15:59N 37°00' W 076°19'0 0.0
2018-Feb-17 15:29N 37°00' W 076°19'1 1.7
2018-Feb-17 14:58N 36°59' W 076°18'0 0.0
2018-Feb-17 14:28N 36°59' W 076°18'1 0.0
2018-Feb-17 01:21N 36°60' W 076°19'0 0.0
2018-Feb-17 01:00N 36°60' W 076°19'0 0.0
2018-Feb-17 00:30N 36°60' W 076°19'0 0.0
2018-Feb-17 00:00N 36°60' W 076°19'0 0.0
2018-Feb-16 23:26N 36°60' W 076°19'0 0.0
2018-Feb-16 23:00N 36°60' W 076°19'0 0.0
2018-Feb-16 22:28N 36°60' W 076°19'0 0.0
2018-Feb-16 21:58N 36°60' W 076°19'0 0.0
2018-Feb-16 21:28N 36°60' W 076°19'0 0.0
2018-Feb-16 20:58N 36°60' W 076°19'0 0.0
2018-Feb-16 20:27N 36°60' W 076°19'0 0.0
2018-Feb-16 19:57N 36°60' W 076°19'0 0.2
2018-Feb-16 19:27N 36°60' W 076°19'0 0.2
2018-Feb-16 18:57N 36°60' W 076°19'0 0.0
2018-Feb-16 18:30N 36°60' W 076°19'0 0.3
2018-Feb-16 17:59N 36°60' W 076°19'0 0.0
2018-Feb-16 17:29N 36°60' W 076°19'0 0.0
2018-Feb-16 16:58N 36°60' W 076°19'0 0.0
2018-Feb-16 16:23N 36°60' W 076°19'0 1.2
2018-Feb-16 16:00N 37°00' W 076°19'0 0.0
2018-Feb-16 15:29N 37°00' W 076°19'0 0.0
2018-Feb-16 14:57N 37°00' W 076°19'0 0.0
2018-Feb-16 14:27N 37°00' W 076°19'0 0.0
2018-Feb-16 14:00N 37°00' W 076°19'0 0.0
2018-Feb-16 13:29N 37°00' W 076°19'0 0.0
2018-Feb-16 12:59N 37°00' W 076°19'0 0.0
2018-Feb-16 12:29N 37°00' W 076°19'0 0.0
2018-Feb-16 11:59N 37°00' W 076°19'0 0.0
2018-Feb-16 11:28N 37°00' W 076°19'0 0.0
2018-Feb-16 10:56N 37°00' W 076°19'0 0.0
2018-Feb-16 10:26N 37°00' W 076°19'0 0.0
2018-Feb-16 10:00N 37°00' W 076°19'0 0.0
2018-Feb-16 09:30N 37°00' W 076°19'0 0.0
2018-Feb-16 09:00N 37°00' W 076°19'0 0.0
2018-Feb-16 08:30N 37°00' W 076°19'0 0.0
2018-Feb-16 07:59N 37°00' W 076°19'0 0.0
2018-Feb-16 07:29N 37°00' W 076°19'1 2.1
2018-Feb-16 06:58N 36°59' W 076°18'0 0.0
2018-Feb-16 06:26N 36°59' W 076°18'0 0.0
2018-Feb-16 06:00N 36°59' W 076°18'1 1.6
2018-Feb-16 05:29N 37°00' W 076°19'0 0.5
2018-Feb-16 04:53N 37°00' W 076°19'1 2.4
2018-Feb-16 04:24N 36°59' W 076°18'1 2.2
2018-Feb-16 03:59N 37°00' W 076°19'0 0.0
2018-Feb-16 03:28N 37°00' W 076°19'0 0.0
2018-Feb-16 02:44N 37°00' W 076°19'0 0.0
2018-Feb-16 02:29N 37°00' W 076°19'0 0.0
2018-Feb-16 01:59N 37°00' W 076°19'0 0.0
2018-Feb-16 01:29N 37°00' W 076°19'0 0.0
2018-Feb-16 00:54N 37°00' W 076°19'0 0.0
2018-Feb-16 00:22N 37°00' W 076°19'0 0.0
2018-Feb-15 23:57N 37°00' W 076°19'0 0.0
2018-Feb-15 23:14N 37°00' W 076°19'0 0.0
2018-Feb-15 22:58N 37°00' W 076°19'0 0.0
2018-Feb-15 22:28N 37°00' W 076°19'0 0.0
2018-Feb-15 21:57N 37°00' W 076°19'0 0.0
2018-Feb-15 21:27N 37°00' W 076°19'0 0.0
2018-Feb-15 21:00N 37°00' W 076°19'1 1.5
2018-Feb-15 20:26N 36°59' W 076°18'1 1.8
2018-Feb-15 20:00N 37°00' W 076°19'0 0.1
2018-Feb-15 19:30N 37°00' W 076°19'0 0.0
2018-Feb-15 18:59N 37°00' W 076°19'0 0.0
2018-Feb-15 18:29N 37°00' W 076°19'0 0.0
2018-Feb-15 17:59N 37°00' W 076°19'0 0.0
2018-Feb-15 17:28N 37°00' W 076°19'0 0.0
2018-Feb-15 16:58N 37°00' W 076°19'0 0.0
2018-Feb-15 16:27N 37°00' W 076°19'0 0.0
2018-Feb-15 15:57N 37°00' W 076°19'0 0.0
2018-Feb-15 15:27N 37°00' W 076°19'0 0.0
2018-Feb-15 14:56N 37°00' W 076°19'0 0.0
2018-Feb-15 14:26N 37°00' W 076°19'1 2.2
2018-Feb-15 14:00N 36°59' W 076°18'0 0.0
2018-Feb-15 13:30N 36°59' W 076°18'0 0.0
2018-Feb-15 13:00N 36°59' W 076°18'0 0.1
2018-Feb-15 12:29N 36°59' W 076°18'1 1.9
2018-Feb-15 11:59N 37°00' W 076°19'0 0.0
2018-Feb-15 11:29N 37°00' W 076°19'0 0.0
2018-Feb-15 10:58N 37°00' W 076°19'0 0.0
2018-Feb-15 10:28N 37°00' W 076°19'0 0.0
2018-Feb-15 09:58N 37°00' W 076°19'0 0.0
2018-Feb-15 09:27N 37°00' W 076°19'0 0.0
2018-Feb-15 08:57N 37°00' W 076°19'0 0.0
2018-Feb-15 08:26N 37°00' W 076°19'0 0.0
2018-Feb-15 07:56N 37°00' W 076°19'0 0.0
2018-Feb-15 07:26N 37°00' W 076°19'0 1.0
2018-Feb-15 07:00N 36°60' W 076°19'1 0.9
2018-Feb-15 06:25N 36°59' W 076°18'0 0.2
2018-Feb-15 05:59N 36°59' W 076°18'1 1.7
2018-Feb-15 05:29N 37°00' W 076°19'0 0.0
2018-Feb-15 04:58N 37°00' W 076°19'0 0.0
2018-Feb-15 04:27N 37°00' W 076°19'0 0.0
2018-Feb-15 03:57N 37°00' W 076°19'0 0.0
2018-Feb-15 03:27N 37°00' W 076°19'0 0.0
2018-Feb-15 02:57N 37°00' W 076°19'0 0.0
2018-Feb-15 02:26N 37°00' W 076°19'0 0.1
2018-Feb-15 01:59N 37°00' W 076°19'0 0.0
2018-Feb-15 01:23N 37°00' W 076°19'0 0.0
2018-Feb-15 00:57N 37°00' W 076°19'0 0.0
2018-Feb-15 00:27N 37°00' W 076°19'0 0.0
2018-Feb-14 23:56N 37°00' W 076°19'0 0.0
2018-Feb-14 23:26N 37°00' W 076°19'0 0.0
2018-Feb-14 23:00N 37°00' W 076°19'1 1.8
2018-Feb-14 22:30N 36°59' W 076°18'1 1.8
2018-Feb-14 21:59N 37°00' W 076°19'0 0.0
2018-Feb-14 21:29N 37°00' W 076°19'0 0.0
2018-Feb-14 20:58N 37°00' W 076°19'0 0.0
2018-Feb-14 20:19N 37°00' W 076°19'0 0.0
2018-Feb-14 19:59N 37°00' W 076°19'0 0.0
2018-Feb-14 19:29N 37°00' W 076°19'0 0.0
2018-Feb-14 18:58N 37°00' W 076°19'0 0.0
2018-Feb-14 18:28N 37°00' W 076°19'0 0.0
2018-Feb-14 17:58N 37°00' W 076°19'0 0.0
2018-Feb-14 17:27N 37°00' W 076°19'0 0.0
2018-Feb-14 16:57N 37°00' W 076°19'0 0.0
2018-Feb-14 16:27N 37°00' W 076°19'1 1.7
2018-Feb-14 15:56N 36°59' W 076°18'0 0.0
2018-Feb-14 15:17N 36°59' W 076°18'0 0.0
2018-Feb-14 14:56N 36°59' W 076°18'0 0.1
2018-Feb-14 14:26N 36°59' W 076°19'0 0.2
2018-Feb-14 14:00N 36°59' W 076°19'0 0.0
2018-Feb-14 13:30N 36°59' W 076°19'0 0.0
2018-Feb-14 13:00N 36°59' W 076°19'0 0.0
2018-Feb-14 12:30N 36°59' W 076°19'0 0.0
2018-Feb-14 11:59N 36°59' W 076°19'0 0.0
2018-Feb-14 11:29N 36°59' W 076°19'0 0.0
2018-Feb-14 10:59N 36°59' W 076°19'0 0.0
2018-Feb-14 10:28N 36°59' W 076°19'0 0.0
2018-Feb-14 09:58N 36°59' W 076°19'0 0.0
2018-Feb-14 09:28N 36°59' W 076°19'0 0.0
2018-Feb-14 08:57N 36°59' W 076°19'0 0.0
2018-Feb-14 08:27N 36°59' W 076°19'1 2.1
2018-Feb-14 07:57N 37°00' W 076°19'0 0.0
2018-Feb-14 07:26N 37°00' W 076°19'0 0.0
2018-Feb-14 06:56N 37°00' W 076°19'0 0.0
2018-Feb-14 06:26N 37°00' W 076°19'0 0.0
2018-Feb-14 05:56N 37°00' W 076°19'0 1.0
2018-Feb-14 05:26N 36°60' W 076°19'0 1.2
2018-Feb-14 05:00N 37°00' W 076°19'0 0.0
2018-Feb-14 04:30N 37°00' W 076°19'0 0.0
2018-Feb-14 04:00N 37°00' W 076°19'0 0.0
2018-Feb-14 03:29N 37°00' W 076°19'0 0.0
2018-Feb-14 02:59N 37°00' W 076°19'0 0.0
2018-Feb-14 02:28N 37°00' W 076°19'0 0.0
2018-Feb-14 01:58N 37°00' W 076°19'0 0.2
2018-Feb-14 01:28N 37°00' W 076°19'0 0.0
2018-Feb-14 01:00N 37°00' W 076°19'0 0.0
2018-Feb-14 00:30N 37°00' W 076°19'0 0.0
2018-Feb-14 00:00N 37°00' W 076°19'0 0.0
2018-Feb-13 23:30N 37°00' W 076°19'0 0.0
2018-Feb-13 22:59N 37°00' W 076°19'1 1.1
2018-Feb-13 22:29N 36°60' W 076°19'1 1.1
2018-Feb-13 21:58N 37°00' W 076°19'0 0.0
2018-Feb-13 21:28N 37°00' W 076°19'0 0.0
2018-Feb-13 20:58N 37°00' W 076°19'0 0.0
2018-Feb-13 20:27N 37°00' W 076°19'1 1.8
2018-Feb-13 19:57N 36°60' W 076°19'1 1.8
2018-Feb-13 19:26N 37°00' W 076°19'0 0.0
2018-Feb-13 18:59N 37°00' W 076°19'0 0.0
2018-Feb-13 18:28N 37°00' W 076°19'0 0.0
2018-Feb-13 17:57N 37°00' W 076°19'0 0.0
2018-Feb-13 17:26N 37°00' W 076°19'0 0.0
2018-Feb-13 17:00N 37°00' W 076°19'0 0.0
2018-Feb-13 16:30N 37°00' W 076°19'0 0.0
2018-Feb-13 15:54N 37°00' W 076°19'0 0.2
2018-Feb-13 15:29N 37°00' W 076°19'0 0.2
2018-Feb-13 14:58N 37°00' W 076°19'0 0.0
2018-Feb-13 14:28N 37°00' W 076°19'0 0.0
2018-Feb-13 13:58N 37°00' W 076°19'0 0.0
2018-Feb-13 13:28N 37°00' W 076°19'0 0.0
2018-Feb-13 12:57N 37°00' W 076°19'0 0.0
2018-Feb-13 12:23N 37°00' W 076°19'0 0.0
2018-Feb-13 11:58N 37°00' W 076°19'0 0.0
2018-Feb-13 11:27N 37°00' W 076°19'0 0.0
2018-Feb-13 10:57N 37°00' W 076°19'0 0.0
2018-Feb-13 10:27N 37°00' W 076°19'0 0.0
2018-Feb-13 09:57N 37°00' W 076°19'0 0.0
2018-Feb-13 09:26N 37°00' W 076°19'0 0.0
2018-Feb-13 08:56N 37°00' W 076°19'0 0.7
2018-Feb-13 08:30N 37°00' W 076°19'0 0.6
2018-Feb-13 08:00N 37°00' W 076°19'0 0.0
2018-Feb-13 07:29N 37°00' W 076°19'0 0.0
2018-Feb-13 06:59N 37°00' W 076°19'0 0.0
2018-Feb-13 06:29N 37°00' W 076°19'0 0.0
2018-Feb-13 05:58N 37°00' W 076°19'0 0.0
2018-Feb-13 05:27N 37°00' W 076°19'0 0.0
2018-Feb-13 04:57N 37°00' W 076°19'0 0.0
2018-Feb-13 04:27N 37°00' W 076°19'0 0.0
2018-Feb-13 03:56N 37°00' W 076°19'0 0.0
2018-Feb-13 03:26N 37°00' W 076°19'0 0.0
2018-Feb-13 02:56N 37°00' W 076°19'0 0.0
2018-Feb-13 02:29N 37°00' W 076°19'0 0.0
2018-Feb-13 01:59N 37°00' W 076°19'0 0.9
2018-Feb-13 01:28N 36°60' W 076°19'0 0.9
2018-Feb-13 00:58N 37°00' W 076°19'0 0.0
2018-Feb-13 00:28N 37°00' W 076°19'0 0.0
2018-Feb-12 23:57N 37°00' W 076°19'0 0.0
2018-Feb-12 23:27N 37°00' W 076°19'0 0.0
2018-Feb-12 22:57N 37°00' W 076°19'0 0.0
2018-Feb-12 22:26N 37°00' W 076°19'0 0.0
2018-Feb-12 21:56N 37°00' W 076°19'0 0.0
2018-Feb-12 21:26N 37°00' W 076°19'0 0.0
2018-Feb-12 20:56N 37°00' W 076°19'0 0.0
2018-Feb-12 20:25N 37°00' W 076°19'0 0.0
2018-Feb-12 20:00N 37°00' W 076°19'0 0.0
2018-Feb-12 19:25N 37°00' W 076°19'0 0.0
2018-Feb-12 18:59N 37°00' W 076°19'0 0.0
2018-Feb-12 18:29N 37°00' W 076°19'0 0.0
2018-Feb-12 17:59N 37°00' W 076°19'0 0.0
2018-Feb-12 17:28N 37°00' W 076°19'0 0.0
2018-Feb-12 16:58N 37°00' W 076°19'0 0.0
2018-Feb-12 16:27N 37°00' W 076°19'0 0.0
2018-Feb-12 15:52N 37°00' W 076°19'0 0.0
2018-Feb-12 15:15N 37°00' W 076°19'0 0.0
2018-Feb-12 14:59N 37°00' W 076°19'0 0.0
2018-Feb-12 14:29N 37°00' W 076°19'0 0.0
2018-Feb-12 13:59N 37°00' W 076°19'0 0.0
2018-Feb-12 13:29N 37°00' W 076°19'  
Track history (hours):
 
Tides and Currents Weather Stations Pressure Air Temp Water Temp Dewpoint Dewpoint Depression Visibility Wind Speed Wind Dir Waves Ship Positions

Sandy G

Owner: GREGORY, FRANK H, JERSEY CITY, NJ. More information available from US FCC via Universal Licensing System and Coast Guard Vessel Documentation Center.

Last reported at 2018-Feb-22 12:59 UTC. Time now 2018-Feb-22 13:12 UTC.
Position N 37°00' W 076°19'.

Length 20 m; draft 2.3 m.

Type: Towing. MMSI: 367014210.

Date/timePositionNaut miles runAvg speedWind from/ knotsBaromVisibWave heightAir tempDewpointWater temp
2018-Feb-22 12:59N 37°00' W 076°19'0 0.0
2018-Feb-22 12:30N 37°00' W 076°19'0 0.0
2018-Feb-22 11:59N 37°00' W 076°19'0 0.0
2018-Feb-22 11:29N 37°00' W 076°19'0 0.0
2018-Feb-22 10:59N 37°00' W 076°19'0 0.0
2018-Feb-22 10:29N 37°00' W 076°19'0 0.0
2018-Feb-22 09:50N 37°00' W 076°19'0 0.0
2018-Feb-22 09:30N 37°00' W 076°19'0 0.0
2018-Feb-22 08:59N 37°00' W 076°19'0 0.0
2018-Feb-22 08:30N 37°00' W 076°19'0 0.0
2018-Feb-22 07:54N 37°00' W 076°19'0 0.0
2018-Feb-22 07:18N 37°00' W 076°19'0 0.3
2018-Feb-22 06:57N 37°00' W 076°19'2 3.4
2018-Feb-22 06:27N 36°59' W 076°18'1 0.8
2018-Feb-22 05:22N 36°59' W 076°19'1 1.4
2018-Feb-22 04:57N 36°60' W 076°19'0 0.0
2018-Feb-22 04:26N 36°60' W 076°19'0 0.1
2018-Feb-22 03:53N 36°60' W 076°19'0 0.0
2018-Feb-22 03:27N 36°60' W 076°19'0 0.0
2018-Feb-22 02:57N 36°60' W 076°19'0 0.0
2018-Feb-22 02:27N 36°60' W 076°19'0 0.0
2018-Feb-22 01:56N 36°60' W 076°19'0 0.0
2018-Feb-22 01:26N 36°60' W 076°19'0 0.1
2018-Feb-22 00:56N 36°60' W 076°19'0 0.0
2018-Feb-22 00:26N 36°60' W 076°19'0 0.0
2018-Feb-21 23:56N 36°60' W 076°19'0 0.0
2018-Feb-21 23:28N 36°60' W 076°19'0 0.0
2018-Feb-21 22:56N 36°60' W 076°19'0 0.0
2018-Feb-21 22:26N 36°60' W 076°19'0 0.0
2018-Feb-21 21:56N 36°60' W 076°19'0 0.0
2018-Feb-21 21:30N 36°60' W 076°19'0 0.1
2018-Feb-21 20:54N 36°60' W 076°19'1 2.3
2018-Feb-21 20:28N 36°59' W 076°18'0 0.6
2018-Feb-21 19:58N 36°59' W 076°18'0 0.0
2018-Feb-21 19:28N 36°59' W 076°18'0 0.0
2018-Feb-21 19:00N 36°59' W 076°18'0 0.0
2018-Feb-21 18:27N 36°59' W 076°18'0 0.1
2018-Feb-21 17:56N 36°59' W 076°18'0 0.0
2018-Feb-21 17:27N 36°59' W 076°18'0 0.0
2018-Feb-21 16:29N 36°59' W 076°18'0 0.0
2018-Feb-21 15:58N 36°59' W 076°18'0 1.0
2018-Feb-21 15:30N 36°59' W 076°18'0 0.0
2018-Feb-21 15:00N 36°59' W 076°18'3 5.3
2018-Feb-21 14:29N 36°58' W 076°21'3 2.0
2018-Feb-21 13:12N 36°58' W 076°25'0 0.0
2018-Feb-21 12:57N 36°58' W 076°25'1 2.0
2018-Feb-21 12:26N 36°57' W 076°24'4 8.2
2018-Feb-21 11:56N 36°59' W 076°19'1 2.3
2018-Feb-21 11:30N 37°00' W 076°19'1 2.4
2018-Feb-21 11:00N 36°59' W 076°18'0 0.0
2018-Feb-21 10:29N 36°59' W 076°18'0 0.0
2018-Feb-21 09:59N 36°59' W 076°18'0 0.0
2018-Feb-21 09:29N 36°59' W 076°18'0 0.0
2018-Feb-21 08:59N 36°59' W 076°18'0 0.0
2018-Feb-21 08:28N 36°59' W 076°18'0 0.0
2018-Feb-21 07:57N 36°59' W 076°18'0 0.0
2018-Feb-21 07:27N 36°59' W 076°18'0 0.0
2018-Feb-21 06:57N 36°59' W 076°18'0 0.0
2018-Feb-21 06:26N 36°59' W 076°18'0 0.0
2018-Feb-21 05:56N 36°59' W 076°18'1 2.5
2018-Feb-21 05:26N 37°00' W 076°19'0 0.0
2018-Feb-21 05:00N 37°00' W 076°19'0 1.0
2018-Feb-21 04:30N 36°60' W 076°19'1 1.9
2018-Feb-21 04:00N 36°59' W 076°18'0 0.0
2018-Feb-21 03:29N 36°59' W 076°18'0 0.0
2018-Feb-21 02:59N 36°59' W 076°18'0 0.0
2018-Feb-21 02:27N 36°59' W 076°18'0 0.0
2018-Feb-21 01:57N 36°59' W 076°18'0 0.0
2018-Feb-21 01:26N 36°59' W 076°18'0 0.0
2018-Feb-21 00:56N 36°59' W 076°18'0 0.2
2018-Feb-21 00:24N 36°59' W 076°18'0 0.0
2018-Feb-21 00:00N 36°59' W 076°18'0 0.0
2018-Feb-20 23:29N 36°59' W 076°18'0 0.0
2018-Feb-20 22:59N 36°59' W 076°18'0 0.0
2018-Feb-20 22:28N 36°59' W 076°18'0 0.0
2018-Feb-20 21:56N 36°59' W 076°18'0 0.0
2018-Feb-20 21:28N 36°59' W 076°18'0 0.0
2018-Feb-20 20:56N 36°59' W 076°18'0 0.0
2018-Feb-20 20:30N 36°59' W 076°18'0 0.0
2018-Feb-20 20:00N 36°59' W 076°18'0 0.0
2018-Feb-20 19:29N 36°59' W 076°18'0 0.0
2018-Feb-20 18:56N 36°59' W 076°18'0 0.0
2018-Feb-20 18:26N 36°59' W 076°18'0 0.0
2018-Feb-20 17:57N 36°59' W 076°18'1 2.0
2018-Feb-20 17:18N 37°00' W 076°19'0 0.0
2018-Feb-20 16:58N 37°00' W 076°19'1 2.6
2018-Feb-20 16:28N 36°59' W 076°18'0 0.0
2018-Feb-20 15:57N 36°59' W 076°18'0 0.1
2018-Feb-20 15:26N 36°59' W 076°18'0 0.0
2018-Feb-20 14:56N 36°59' W 076°18'0 0.0
2018-Feb-20 14:30N 36°59' W 076°18'0 0.0
2018-Feb-20 14:00N 36°59' W 076°18'0 0.0
2018-Feb-20 13:30N 36°59' W 076°18'0 0.0
2018-Feb-20 12:59N 36°59' W 076°18'0 0.0
2018-Feb-20 12:29N 36°59' W 076°18'0 0.0
2018-Feb-20 11:47N 36°59' W 076°18'0 0.0
2018-Feb-20 11:27N 36°59' W 076°18'0 0.0
2018-Feb-20 10:55N 36°59' W 076°18'0 0.2
2018-Feb-20 10:30N 36°59' W 076°18'0 0.0
2018-Feb-20 09:59N 36°59' W 076°18'0 0.0
2018-Feb-20 09:21N 36°59' W 076°18'0 0.0
2018-Feb-20 09:00N 36°59' W 076°18'0 0.1
2018-Feb-20 08:30N 36°59' W 076°18'0 0.0
2018-Feb-20 07:59N 36°59' W 076°18'0 0.0
2018-Feb-20 07:28N 36°59' W 076°18'0 0.0
2018-Feb-20 06:58N 36°59' W 076°18'0 0.0
2018-Feb-20 06:28N 36°59' W 076°18'0 0.0
2018-Feb-20 05:57N 36°59' W 076°18'0 0.0
2018-Feb-20 05:27N 36°59' W 076°18'0 0.0
2018-Feb-20 04:57N 36°59' W 076°18'0 0.0
2018-Feb-20 04:26N 36°59' W 076°18'0 0.0
2018-Feb-20 03:56N 36°59' W 076°18'0 0.0
2018-Feb-20 03:30N 36°59' W 076°18'0 0.0
2018-Feb-20 03:00N 36°59' W 076°18'0 0.5
2018-Feb-20 02:30N 36°59' W 076°19'1 2.0
2018-Feb-20 02:00N 37°00' W 076°19'0 0.0
2018-Feb-20 01:29N 37°00' W 076°19'0 0.0
2018-Feb-20 00:59N 37°00' W 076°19'0 0.0
2018-Feb-20 00:28N 37°00' W 076°19'0 0.0
2018-Feb-19 23:58N 37°00' W 076°19'0 0.0
2018-Feb-19 23:30N 37°00' W 076°19'0 0.0
2018-Feb-19 23:00N 37°00' W 076°19'0 0.0
2018-Feb-19 22:29N 37°00' W 076°19'0 0.0
2018-Feb-19 21:57N 37°00' W 076°19'0 0.0
2018-Feb-19 21:14N 37°00' W 076°19'0 0.0
2018-Feb-19 20:59N 37°00' W 076°19'0 0.2
2018-Feb-19 20:27N 37°00' W 076°19'0 0.0
2018-Feb-19 20:00N 37°00' W 076°19'0 0.0
2018-Feb-19 19:23N 37°00' W 076°19'0 0.0
2018-Feb-19 18:49N 37°00' W 076°19'0 0.0
2018-Feb-19 18:29N 37°00' W 076°19'0 0.0
2018-Feb-19 17:58N 37°00' W 076°19'0 0.0
2018-Feb-19 17:28N 37°00' W 076°19'0 0.0
2018-Feb-19 16:54N 37°00' W 076°19'0 0.0
2018-Feb-19 16:28N 37°00' W 076°19'0 0.0
2018-Feb-19 15:50N 37°00' W 076°19'1 2.6
2018-Feb-19 15:30N 36°59' W 076°19'0 0.6
2018-Feb-19 14:56N 36°59' W 076°18'0 0.0
2018-Feb-19 14:20N 36°59' W 076°18'0 0.0
2018-Feb-19 14:00N 36°59' W 076°18'0 0.0
2018-Feb-19 13:30N 36°59' W 076°18'0 0.0
2018-Feb-19 12:59N 36°59' W 076°18'0 0.0
2018-Feb-19 12:22N 36°59' W 076°18'0 0.0
2018-Feb-19 11:56N 36°59' W 076°18'0 0.0
2018-Feb-19 11:25N 36°59' W 076°18'0 0.1
2018-Feb-19 11:00N 36°59' W 076°18'0 0.3
2018-Feb-19 10:29N 36°59' W 076°18'0 0.0
2018-Feb-19 09:59N 36°59' W 076°18'0 0.0
2018-Feb-19 09:28N 36°59' W 076°18'0 0.0
2018-Feb-19 08:52N 36°59' W 076°18'0 0.0
2018-Feb-19 08:24N 36°59' W 076°18'0 0.0
2018-Feb-19 07:59N 36°59' W 076°18'0 0.0
2018-Feb-19 07:25N 36°59' W 076°18'0 0.0
2018-Feb-19 06:57N 36°59' W 076°18'0 0.0
2018-Feb-19 06:17N 36°59' W 076°18'0 0.0
2018-Feb-19 05:57N 36°59' W 076°18'0 0.0
2018-Feb-19 05:21N 36°59' W 076°18'0 0.0
2018-Feb-19 04:59N 36°59' W 076°18'0 0.0
2018-Feb-19 04:28N 36°59' W 076°18'0 0.0
2018-Feb-19 03:56N 36°59' W 076°18'0 0.0
2018-Feb-19 03:30N 36°59' W 076°18'0 0.0
2018-Feb-19 03:00N 36°59' W 076°18'0 0.0
2018-Feb-19 02:29N 36°59' W 076°18'0 0.0
2018-Feb-19 01:59N 36°59' W 076°18'0 0.0
2018-Feb-19 01:27N 36°59' W 076°18'0 0.0
2018-Feb-19 01:00N 36°59' W 076°18'0 0.2
2018-Feb-19 00:28N 36°59' W 076°18'0 0.0
2018-Feb-18 23:57N 36°59' W 076°18'0 0.0
2018-Feb-18 23:26N 36°59' W 076°18'0 0.0
2018-Feb-18 22:58N 36°59' W 076°18'0 1.0
2018-Feb-18 22:30N 36°60' W 076°19'1 0.5
2018-Feb-18 21:30N 37°00' W 076°19'0 0.0
2018-Feb-18 20:58N 37°00' W 076°19'0 0.0
2018-Feb-18 20:27N 37°00' W 076°19'0 0.0
2018-Feb-18 19:57N 37°00' W 076°19'0 0.0
2018-Feb-18 19:27N 37°00' W 076°19'0 0.0
2018-Feb-18 18:58N 37°00' W 076°19'0 0.0
2018-Feb-18 18:22N 37°00' W 076°19'0 0.0
2018-Feb-18 18:00N 37°00' W 076°19'0 0.0
2018-Feb-18 17:30N 37°00' W 076°19'0 0.0
2018-Feb-18 17:00N 37°00' W 076°19'0 0.0
2018-Feb-18 16:26N 37°00' W 076°19'0 0.2
2018-Feb-18 15:55N 37°00' W 076°19'1 1.7
2018-Feb-18 15:23N 36°59' W 076°18'0 0.0
2018-Feb-18 14:57N 36°59' W 076°18'0 0.0
2018-Feb-18 14:27N 36°59' W 076°18'0 0.0
2018-Feb-18 13:56N 36°59' W 076°18'0 0.0
2018-Feb-18 13:30N 36°59' W 076°18'0 0.0
2018-Feb-18 13:00N 36°59' W 076°18'0 0.0
2018-Feb-18 12:29N 36°59' W 076°18'0 0.0
2018-Feb-18 11:59N 36°59' W 076°18'0 0.0
2018-Feb-18 11:29N 36°59' W 076°18'0 0.4
2018-Feb-18 10:51N 36°59' W 076°19'0 0.0
2018-Feb-18 10:26N 36°59' W 076°19'1 1.3
2018-Feb-18 09:48N 37°00' W 076°19'0 0.0
2018-Feb-18 09:23N 37°00' W 076°19'0 0.0
2018-Feb-18 08:58N 37°00' W 076°19'0 0.0
2018-Feb-18 08:28N 37°00' W 076°19'0 0.0
2018-Feb-18 07:58N 37°00' W 076°19'0 0.0
2018-Feb-18 07:27N 37°00' W 076°19'0 0.0
2018-Feb-18 06:55N 37°00' W 076°19'0 0.0
2018-Feb-18 06:30N 37°00' W 076°19'0 0.0
2018-Feb-18 06:00N 37°00' W 076°19'0 0.0
2018-Feb-18 05:29N 37°00' W 076°19'0 0.6
2018-Feb-18 04:59N 37°00' W 076°19'1 1.6
2018-Feb-18 04:28N 36°60' W 076°19'0 0.5
2018-Feb-18 03:55N 36°59' W 076°19'0 0.0
2018-Feb-18 03:29N 36°59' W 076°19'0 0.2
2018-Feb-18 02:59N 36°59' W 076°18'1 2.2
2018-Feb-18 02:28N 37°00' W 076°19'0 0.0
2018-Feb-18 01:57N 37°00' W 076°19'0 0.0
2018-Feb-18 01:30N 37°00' W 076°19'0 0.5
2018-Feb-18 00:57N 37°00' W 076°19'0 0.0
2018-Feb-18 00:26N 37°00' W 076°19'0 0.0
2018-Feb-17 23:56N 37°00' W 076°19'0 0.0
2018-Feb-17 23:30N 37°00' W 076°19'0 0.0
2018-Feb-17 23:00N 37°00' W 076°19'0 0.0
2018-Feb-17 22:29N 37°00' W 076°19'0 0.0
2018-Feb-17 21:59N 37°00' W 076°19'0 0.0
2018-Feb-17 21:23N 37°00' W 076°19'0 0.0
2018-Feb-17 20:58N 37°00' W 076°19'0 0.0
2018-Feb-17 20:28N 37°00' W 076°19'0 0.0
2018-Feb-17 19:58N 37°00' W 076°19'0 0.0
2018-Feb-17 19:28N 37°00' W 076°19'1 2.4
2018-Feb-17 18:57N 36°59' W 076°19'1 2.9
2018-Feb-17 18:27N 37°00' W 076°19'1 1.5
2018-Feb-17 17:56N 36°60' W 076°19'1 1.4
2018-Feb-17 17:31N 37°00' W 076°19'0 0.0
2018-Feb-17 17:00N 37°00' W 076°19'0 0.0
2018-Feb-17 16:30N 37°00' W 076°19'0 0.0
2018-Feb-17 15:59N 37°00' W 076°19'0 0.0
2018-Feb-17 15:29N 37°00' W 076°19'1 1.7
2018-Feb-17 14:58N 36°59' W 076°18'0 0.0
2018-Feb-17 14:28N 36°59' W 076°18'1 0.0
2018-Feb-17 01:21N 36°60' W 076°19'0 0.0
2018-Feb-17 01:00N 36°60' W 076°19'0 0.0
2018-Feb-17 00:30N 36°60' W 076°19'0 0.0
2018-Feb-17 00:00N 36°60' W 076°19'0 0.0
2018-Feb-16 23:26N 36°60' W 076°19'0 0.0
2018-Feb-16 23:00N 36°60' W 076°19'0 0.0
2018-Feb-16 22:28N 36°60' W 076°19'0 0.0
2018-Feb-16 21:58N 36°60' W 076°19'0 0.0
2018-Feb-16 21:28N 36°60' W 076°19'0 0.0
2018-Feb-16 20:58N 36°60' W 076°19'0 0.0
2018-Feb-16 20:27N 36°60' W 076°19'0 0.0
2018-Feb-16 19:57N 36°60' W 076°19'0 0.2
2018-Feb-16 19:27N 36°60' W 076°19'0 0.2
2018-Feb-16 18:57N 36°60' W 076°19'0 0.0
2018-Feb-16 18:30N 36°60' W 076°19'0 0.3
2018-Feb-16 17:59N 36°60' W 076°19'0 0.0
2018-Feb-16 17:29N 36°60' W 076°19'0 0.0
2018-Feb-16 16:58N 36°60' W 076°19'0 0.0
2018-Feb-16 16:23N 36°60' W 076°19'0 1.2
2018-Feb-16 16:00N 37°00' W 076°19'0 0.0
2018-Feb-16 15:29N 37°00' W 076°19'0 0.0
2018-Feb-16 14:57N 37°00' W 076°19'0 0.0
2018-Feb-16 14:27N 37°00' W 076°19'0 0.0
2018-Feb-16 14:00N 37°00' W 076°19'0 0.0
2018-Feb-16 13:29N 37°00' W 076°19'0 0.0
2018-Feb-16 12:59N 37°00' W 076°19'0 0.0
2018-Feb-16 12:29N 37°00' W 076°19'0 0.0
2018-Feb-16 11:59N 37°00' W 076°19'0 0.0
2018-Feb-16 11:28N 37°00' W 076°19'0 0.0
2018-Feb-16 10:56N 37°00' W 076°19'0 0.0
2018-Feb-16 10:26N 37°00' W 076°19'0 0.0
2018-Feb-16 10:00N 37°00' W 076°19'0 0.0
2018-Feb-16 09:30N 37°00' W 076°19'0 0.0
2018-Feb-16 09:00N 37°00' W 076°19'0 0.0
2018-Feb-16 08:30N 37°00' W 076°19'0 0.0
2018-Feb-16 07:59N 37°00' W 076°19'0 0.0
2018-Feb-16 07:29N 37°00' W 076°19'1 2.1
2018-Feb-16 06:58N 36°59' W 076°18'0 0.0
2018-Feb-16 06:26N 36°59' W 076°18'0 0.0
2018-Feb-16 06:00N 36°59' W 076°18'1 1.6
2018-Feb-16 05:29N 37°00' W 076°19'0 0.5
2018-Feb-16 04:53N 37°00' W 076°19'1 2.4
2018-Feb-16 04:24N 36°59' W 076°18'1 2.2
2018-Feb-16 03:59N 37°00' W 076°19'0 0.0
2018-Feb-16 03:28N 37°00' W 076°19'0 0.0
2018-Feb-16 02:44N 37°00' W 076°19'0 0.0
2018-Feb-16 02:29N 37°00' W 076°19'0 0.0
2018-Feb-16 01:59N 37°00' W 076°19'0 0.0
2018-Feb-16 01:29N 37°00' W 076°19'0 0.0
2018-Feb-16 00:54N 37°00' W 076°19'0 0.0
2018-Feb-16 00:22N 37°00' W 076°19'0 0.0
2018-Feb-15 23:57N 37°00' W 076°19'0 0.0
2018-Feb-15 23:14N 37°00' W 076°19'0 0.0
2018-Feb-15 22:58N 37°00' W 076°19'0 0.0
2018-Feb-15 22:28N 37°00' W 076°19'0 0.0
2018-Feb-15 21:57N 37°00' W 076°19'0 0.0
2018-Feb-15 21:27N 37°00' W 076°19'0 0.0
2018-Feb-15 21:00N 37°00' W 076°19'1 1.5
2018-Feb-15 20:26N 36°59' W 076°18'1 1.8
2018-Feb-15 20:00N 37°00' W 076°19'0 0.1
2018-Feb-15 19:30N 37°00' W 076°19'0 0.0
2018-Feb-15 18:59N 37°00' W 076°19'0 0.0
2018-Feb-15 18:29N 37°00' W 076°19'0 0.0
2018-Feb-15 17:59N 37°00' W 076°19'0 0.0
2018-Feb-15 17:28N 37°00' W 076°19'0 0.0
2018-Feb-15 16:58N 37°00' W 076°19'0 0.0
2018-Feb-15 16:27N 37°00' W 076°19'0 0.0
2018-Feb-15 15:57N 37°00' W 076°19'0 0.0
2018-Feb-15 15:27N 37°00' W 076°19'0 0.0
2018-Feb-15 14:56N 37°00' W 076°19'0 0.0
2018-Feb-15 14:26N 37°00' W 076°19'1 2.2
2018-Feb-15 14:00N 36°59' W 076°18'0 0.0
2018-Feb-15 13:30N 36°59' W 076°18'0 0.0
2018-Feb-15 13:00N 36°59' W 076°18'0 0.1
2018-Feb-15 12:29N 36°59' W 076°18'1 1.9
2018-Feb-15 11:59N 37°00' W 076°19'0 0.0
2018-Feb-15 11:29N 37°00' W 076°19'0 0.0
2018-Feb-15 10:58N 37°00' W 076°19'0 0.0
2018-Feb-15 10:28N 37°00' W 076°19'0 0.0
2018-Feb-15 09:58N 37°00' W 076°19'0 0.0
2018-Feb-15 09:27N 37°00' W 076°19'0 0.0
2018-Feb-15 08:57N 37°00' W 076°19'0 0.0
2018-Feb-15 08:26N 37°00' W 076°19'0 0.0
2018-Feb-15 07:56N 37°00' W 076°19'0 0.0
2018-Feb-15 07:26N 37°00' W 076°19'0 1.0
2018-Feb-15 07:00N 36°60' W 076°19'1 0.9
2018-Feb-15 06:25N 36°59' W 076°18'0 0.2
2018-Feb-15 05:59N 36°59' W 076°18'1 1.7
2018-Feb-15 05:29N 37°00' W 076°19'0 0.0
2018-Feb-15 04:58N 37°00' W 076°19'0 0.0
2018-Feb-15 04:27N 37°00' W 076°19'0 0.0
2018-Feb-15 03:57N 37°00' W 076°19'0 0.0
2018-Feb-15 03:27N 37°00' W 076°19'0 0.0
2018-Feb-15 02:57N 37°00' W 076°19'0 0.0
2018-Feb-15 02:26N 37°00' W 076°19'0 0.1
2018-Feb-15 01:59N 37°00' W 076°19'0 0.0
2018-Feb-15 01:23N 37°00' W 076°19'0 0.0
2018-Feb-15 00:57N 37°00' W 076°19'0 0.0
2018-Feb-15 00:27N 37°00' W 076°19'0 0.0
2018-Feb-14 23:56N 37°00' W 076°19'0 0.0
2018-Feb-14 23:26N 37°00' W 076°19'0 0.0
2018-Feb-14 23:00N 37°00' W 076°19'1 1.8
2018-Feb-14 22:30N 36°59' W 076°18'1 1.8
2018-Feb-14 21:59N 37°00' W 076°19'0 0.0
2018-Feb-14 21:29N 37°00' W 076°19'0 0.0
2018-Feb-14 20:58N 37°00' W 076°19'0 0.0
2018-Feb-14 20:19N 37°00' W 076°19'0 0.0
2018-Feb-14 19:59N 37°00' W 076°19'0 0.0
2018-Feb-14 19:29N 37°00' W 076°19'0 0.0
2018-Feb-14 18:58N 37°00' W 076°19'0 0.0
2018-Feb-14 18:28N 37°00' W 076°19'0 0.0
2018-Feb-14 17:58N 37°00' W 076°19'0 0.0
2018-Feb-14 17:27N 37°00' W 076°19'0 0.0
2018-Feb-14 16:57N 37°00' W 076°19'0 0.0
2018-Feb-14 16:27N 37°00' W 076°19'1 1.7
2018-Feb-14 15:56N 36°59' W 076°18'0 0.0
2018-Feb-14 15:17N 36°59' W 076°18'0 0.0
2018-Feb-14 14:56N 36°59' W 076°18'0 0.1
2018-Feb-14 14:26N 36°59' W 076°19'0 0.2
2018-Feb-14 14:00N 36°59' W 076°19'0 0.0
2018-Feb-14 13:30N 36°59' W 076°19'0 0.0
2018-Feb-14 13:00N 36°59' W 076°19'0 0.0
2018-Feb-14 12:30N 36°59' W 076°19'0 0.0
2018-Feb-14 11:59N 36°59' W 076°19'0 0.0
2018-Feb-14 11:29N 36°59' W 076°19'0 0.0
2018-Feb-14 10:59N 36°59' W 076°19'0 0.0
2018-Feb-14 10:28N 36°59' W 076°19'0 0.0
2018-Feb-14 09:58N 36°59' W 076°19'0 0.0
2018-Feb-14 09:28N 36°59' W 076°19'0 0.0
2018-Feb-14 08:57N 36°59' W 076°19'0 0.0
2018-Feb-14 08:27N 36°59' W 076°19'1 2.1
2018-Feb-14 07:57N 37°00' W 076°19'0 0.0
2018-Feb-14 07:26N 37°00' W 076°19'0 0.0
2018-Feb-14 06:56N 37°00' W 076°19'0 0.0
2018-Feb-14 06:26N 37°00' W 076°19'0 0.0
2018-Feb-14 05:56N 37°00' W 076°19'0 1.0
2018-Feb-14 05:26N 36°60' W 076°19'0 1.2
2018-Feb-14 05:00N 37°00' W 076°19'0 0.0
2018-Feb-14 04:30N 37°00' W 076°19'0 0.0
2018-Feb-14 04:00N 37°00' W 076°19'0 0.0
2018-Feb-14 03:29N 37°00' W 076°19'0 0.0
2018-Feb-14 02:59N 37°00' W 076°19'0 0.0
2018-Feb-14 02:28N 37°00' W 076°19'0 0.0
2018-Feb-14 01:58N 37°00' W 076°19'0 0.2
2018-Feb-14 01:28N 37°00' W 076°19'0 0.0
2018-Feb-14 01:00N 37°00' W 076°19'0 0.0
2018-Feb-14 00:30N 37°00' W 076°19'0 0.0
2018-Feb-14 00:00N 37°00' W 076°19'0 0.0
2018-Feb-13 23:30N 37°00' W 076°19'0 0.0
2018-Feb-13 22:59N 37°00' W 076°19'1 1.1
2018-Feb-13 22:29N 36°60' W 076°19'1 1.1
2018-Feb-13 21:58N 37°00' W 076°19'0 0.0
2018-Feb-13 21:28N 37°00' W 076°19'0 0.0
2018-Feb-13 20:58N 37°00' W 076°19'0 0.0
2018-Feb-13 20:27N 37°00' W 076°19'1 1.8
2018-Feb-13 19:57N 36°60' W 076°19'1 1.8
2018-Feb-13 19:26N 37°00' W 076°19'0 0.0
2018-Feb-13 18:59N 37°00' W 076°19'0 0.0
2018-Feb-13 18:28N 37°00' W 076°19'0 0.0
2018-Feb-13 17:57N 37°00' W 076°19'0 0.0
2018-Feb-13 17:26N 37°00' W 076°19'0 0.0
2018-Feb-13 17:00N 37°00' W 076°19'0 0.0
2018-Feb-13 16:30N 37°00' W 076°19'0 0.0
2018-Feb-13 15:54N 37°00' W 076°19'0 0.2
2018-Feb-13 15:29N 37°00' W 076°19'0 0.2
2018-Feb-13 14:58N 37°00' W 076°19'0 0.0
2018-Feb-13 14:28N 37°00' W 076°19'0 0.0
2018-Feb-13 13:58N 37°00' W 076°19'0 0.0
2018-Feb-13 13:28N 37°00' W 076°19'0 0.0
2018-Feb-13 12:57N 37°00' W 076°19'0 0.0
2018-Feb-13 12:23N 37°00' W 076°19'0 0.0
2018-Feb-13 11:58N 37°00' W 076°19'0 0.0
2018-Feb-13 11:27N 37°00' W 076°19'0 0.0
2018-Feb-13 10:57N 37°00' W 076°19'0 0.0
2018-Feb-13 10:27N 37°00' W 076°19'0 0.0
2018-Feb-13 09:57N 37°00' W 076°19'0 0.0
2018-Feb-13 09:26N 37°00' W 076°19'0 0.0
2018-Feb-13 08:56N 37°00' W 076°19'0 0.7
2018-Feb-13 08:30N 37°00' W 076°19'0 0.6
2018-Feb-13 08:00N 37°00' W 076°19'0 0.0
2018-Feb-13 07:29N 37°00' W 076°19'0 0.0
2018-Feb-13 06:59N 37°00' W 076°19'0 0.0
2018-Feb-13 06:29N 37°00' W 076°19'0 0.0
2018-Feb-13 05:58N 37°00' W 076°19'0 0.0
2018-Feb-13 05:27N 37°00' W 076°19'0 0.0
2018-Feb-13 04:57N 37°00' W 076°19'0 0.0
2018-Feb-13 04:27N 37°00' W 076°19'0 0.0
2018-Feb-13 03:56N 37°00' W 076°19'0 0.0
2018-Feb-13 03:26N 37°00' W 076°19'0 0.0
2018-Feb-13 02:56N 37°00' W 076°19'0 0.0
2018-Feb-13 02:29N 37°00' W 076°19'0 0.0
2018-Feb-13 01:59N 37°00' W 076°19'0 0.9
2018-Feb-13 01:28N 36°60' W 076°19'0 0.9
2018-Feb-13 00:58N 37°00' W 076°19'0 0.0
2018-Feb-13 00:28N 37°00' W 076°19'0 0.0
2018-Feb-12 23:57N 37°00' W 076°19'0 0.0
2018-Feb-12 23:27N 37°00' W 076°19'0 0.0
2018-Feb-12 22:57N 37°00' W 076°19'0 0.0
2018-Feb-12 22:26N 37°00' W 076°19'0 0.0
2018-Feb-12 21:56N 37°00' W 076°19'0 0.0
2018-Feb-12 21:26N 37°00' W 076°19'0 0.0
2018-Feb-12 20:56N 37°00' W 076°19'0 0.0
2018-Feb-12 20:25N 37°00' W 076°19'0 0.0
2018-Feb-12 20:00N 37°00' W 076°19'0 0.0
2018-Feb-12 19:25N 37°00' W 076°19'0 0.0
2018-Feb-12 18:59N 37°00' W 076°19'0 0.0
2018-Feb-12 18:29N 37°00' W 076°19'0 0.0
2018-Feb-12 17:59N 37°00' W 076°19'0 0.0
2018-Feb-12 17:28N 37°00' W 076°19'0 0.0
2018-Feb-12 16:58N 37°00' W 076°19'0 0.0
2018-Feb-12 16:27N 37°00' W 076°19'0 0.0
2018-Feb-12 15:52N 37°00' W 076°19'0 0.0
2018-Feb-12 15:15N 37°00' W 076°19'0 0.0
2018-Feb-12 14:59N 37°00' W 076°19'0 0.0
2018-Feb-12 14:29N 37°00' W 076°19'0 0.0
2018-Feb-12 13:59N 37°00' W 076°19'0 0.0
2018-Feb-12 13:29N 37°00' W 076°19'  

Dump ship's entire track history